Terminal Aerodrome Forecast
Issued by NWS

Home | Current Version | Previous Version | Graphics & Text | Print | Product List | Glossary On
Versions: 1 2 3 4 5 6 7 8 9 10 11 12 13 14 15 16 17 18 19
000
FTUS43 KGRB 241855 AAA
TAFRHI
TAF AMD
KRHI 241855Z 2419/2518 25008KT P6SM SCT010 BKN027
     FM250100 28004KT P6SM SCT120 BKN200
     FM251500 27010KT P6SM SCT250=

USA.gov is the U.S. government's official web portal to all federal, state and local government web resources and services.